sensor_id;sensor_type;location;lat;lon;timestamp;P1;durP1;ratioP1;P2;durP2;ratioP2
85725;SDS011;76169;47.278;10.984;2024-02-28T00:01:24;2.58;;;1.70;;
85725;SDS011;76169;47.278;10.984;2024-02-28T00:03:51;1.48;;;1.38;;
85725;SDS011;76169;47.278;10.984;2024-02-28T00:06:17;2.00;;;1.70;;
85725;SDS011;76169;47.278;10.984;2024-02-28T00:08:43;1.90;;;1.70;;
85725;SDS011;76169;47.278;10.984;2024-02-28T00:11:10;2.00;;;1.60;;
85725;SDS011;76169;47.278;10.984;2024-02-28T00:13:36;2.20;;;1.95;;
85725;SDS011;76169;47.278;10.984;2024-02-28T00:16:02;2.70;;;1.90;;
85725;SDS011;76169;47.278;10.984;2024-02-28T00:18:28;2.30;;;1.88;;
85725;SDS011;76169;47.278;10.984;2024-02-28T00:20:56;2.92;;;2.08;;
85725;SDS011;76169;47.278;10.984;2024-02-28T00:23:22;1.92;;;1.83;;
85725;SDS011;76169;47.278;10.984;2024-02-28T00:25:48;2.58;;;1.80;;
85725;SDS011;76169;47.278;10.984;2024-02-28T00:28:14;2.33;;;1.90;;
85725;SDS011;76169;47.278;10.984;2024-02-28T00:30:40;1.83;;;1.73;;
85725;SDS011;76169;47.278;10.984;2024-02-28T00:33:06;2.28;;;2.08;;
85725;SDS011;76169;47.278;10.984;2024-02-28T00:35:32;1.77;;;1.65;;
85725;SDS011;76169;47.278;10.984;2024-02-28T00:38:01;2.28;;;1.80;;
85725;SDS011;76169;47.278;10.984;2024-02-28T00:40:28;2.13;;;1.73;;
85725;SDS011;76169;47.278;10.984;2024-02-28T00:42:54;3.25;;;2.00;;
85725;SDS011;76169;47.278;10.984;2024-02-28T00:45:20;1.75;;;1.65;;
85725;SDS011;76169;47.278;10.984;2024-02-28T00:47:46;2.42;;;1.70;;
85725;SDS011;76169;47.278;10.984;2024-02-28T00:50:12;3.22;;;1.90;;
85725;SDS011;76169;47.278;10.984;2024-02-28T00:52:38;3.78;;;1.90;;
85725;SDS011;76169;47.278;10.984;2024-02-28T00:55:05;1.85;;;1.45;;
85725;SDS011;76169;47.278;10.984;2024-02-28T00:57:31;2.50;;;1.60;;
85725;SDS011;76169;47.278;10.984;2024-02-28T00:59:57;2.67;;;2.03;;
85725;SDS011;76169;47.278;10.984;2024-02-28T01:02:23;2.53;;;1.88;;
85725;SDS011;76169;47.278;10.984;2024-02-28T01:04:49;3.05;;;2.00;;
85725;SDS011;76169;47.278;10.984;2024-02-28T01:07:15;2.40;;;2.08;;
85725;SDS011;76169;47.278;10.984;2024-02-28T01:09:42;2.35;;;1.85;;
85725;SDS011;76169;47.278;10.984;2024-02-28T01:12:08;2.30;;;2.10;;
85725;SDS011;76169;47.278;10.984;2024-02-28T01:14:34;2.05;;;1.83;;
85725;SDS011;76169;47.278;10.984;2024-02-28T01:17:00;2.33;;;1.95;;
85725;SDS011;76169;47.278;10.984;2024-02-28T01:19:26;2.25;;;2.05;;
85725;SDS011;76169;47.278;10.984;2024-02-28T01:21:52;2.15;;;1.95;;
85725;SDS011;76169;47.278;10.984;2024-02-28T01:24:18;2.15;;;1.95;;
85725;SDS011;76169;47.278;10.984;2024-02-28T01:26:44;2.55;;;2.03;;
85725;SDS011;76169;47.278;10.984;2024-02-28T01:29:10;2.08;;;1.88;;
85725;SDS011;76169;47.278;10.984;2024-02-28T01:31:37;2.20;;;2.00;;
85725;SDS011;76169;47.278;10.984;2024-02-28T01:34:03;2.65;;;2.42;;
85725;SDS011;76169;47.278;10.984;2024-02-28T01:36:29;2.47;;;2.20;;
85725;SDS011;76169;47.278;10.984;2024-02-28T01:38:55;2.63;;;2.20;;
85725;SDS011;76169;47.278;10.984;2024-02-28T01:41:21;2.88;;;2.00;;
85725;SDS011;76169;47.278;10.984;2024-02-28T01:43:47;2.20;;;2.00;;
85725;SDS011;76169;47.278;10.984;2024-02-28T01:46:23;2.30;;;2.10;;
85725;SDS011;76169;47.278;10.984;2024-02-28T01:48:49;1.92;;;1.83;;
85725;SDS011;76169;47.278;10.984;2024-02-28T01:51:16;2.92;;;1.75;;
85725;SDS011;76169;47.278;10.984;2024-02-28T01:53:42;2.05;;;1.85;;
85725;SDS011;76169;47.278;10.984;2024-02-28T01:56:10;3.05;;;2.10;;
85725;SDS011;76169;47.278;10.984;2024-02-28T01:58:36;1.98;;;1.77;;
85725;SDS011;76169;47.278;10.984;2024-02-28T02:01:03;2.40;;;2.20;;
85725;SDS011;76169;47.278;10.984;2024-02-28T02:03:31;2.75;;;2.30;;
85725;SDS011;76169;47.278;10.984;2024-02-28T02:05:59;2.53;;;2.30;;
85725;SDS011;76169;47.278;10.984;2024-02-28T02:08:25;2.28;;;2.08;;
85725;SDS011;76169;47.278;10.984;2024-02-28T02:10:51;2.50;;;2.10;;
85725;SDS011;76169;47.278;10.984;2024-02-28T02:13:17;2.33;;;2.13;;
85725;SDS011;76169;47.278;10.984;2024-02-28T02:15:44;4.57;;;2.38;;
85725;SDS011;76169;47.278;10.984;2024-02-28T02:18:10;2.50;;;2.30;;
85725;SDS011;76169;47.278;10.984;2024-02-28T02:20:37;2.50;;;2.30;;
85725;SDS011;76169;47.278;10.984;2024-02-28T02:23:04;2.50;;;2.30;;
85725;SDS011;76169;47.278;10.984;2024-02-28T02:25:31;3.22;;;2.08;;
85725;SDS011;76169;47.278;10.984;2024-02-28T02:27:57;3.13;;;2.25;;
85725;SDS011;76169;47.278;10.984;2024-02-28T02:30:23;2.50;;;2.30;;
85725;SDS011;76169;47.278;10.984;2024-02-28T02:32:49;2.95;;;2.45;;
85725;SDS011;76169;47.278;10.984;2024-02-28T02:35:15;2.63;;;2.10;;
85725;SDS011;76169;47.278;10.984;2024-02-28T02:37:44;2.50;;;2.25;;
85725;SDS011;76169;47.278;10.984;2024-02-28T02:40:13;2.10;;;2.00;;
85725;SDS011;76169;47.278;10.984;2024-02-28T02:42:39;2.97;;;2.40;;
85725;SDS011;76169;47.278;10.984;2024-02-28T02:45:06;2.40;;;2.20;;
85725;SDS011;76169;47.278;10.984;2024-02-28T02:47:32;2.78;;;2.20;;
85725;SDS011;76169;47.278;10.984;2024-02-28T02:49:58;2.55;;;2.22;;
85725;SDS011;76169;47.278;10.984;2024-02-28T02:52:24;2.33;;;2.13;;
85725;SDS011;76169;47.278;10.984;2024-02-28T02:54:50;2.13;;;1.92;;
85725;SDS011;76169;47.278;10.984;2024-02-28T02:57:16;2.40;;;2.20;;
85725;SDS011;76169;47.278;10.984;2024-02-28T02:59:42;5.15;;;2.13;;
85725;SDS011;76169;47.278;10.984;2024-02-28T03:02:08;2.67;;;2.47;;
85725;SDS011;76169;47.278;10.984;2024-02-28T03:04:34;2.97;;;2.55;;
85725;SDS011;76169;47.278;10.984;2024-02-28T03:07:00;2.30;;;2.10;;
85725;SDS011;76169;47.278;10.984;2024-02-28T03:09:26;2.75;;;2.40;;
85725;SDS011;76169;47.278;10.984;2024-02-28T03:11:52;3.28;;;2.30;;
85725;SDS011;76169;47.278;10.984;2024-02-28T03:14:18;2.53;;;2.33;;
85725;SDS011;76169;47.278;10.984;2024-02-28T03:16:47;2.92;;;2.45;;
85725;SDS011;76169;47.278;10.984;2024-02-28T03:19:14;2.95;;;2.17;;
85725;SDS011;76169;47.278;10.984;2024-02-28T03:21:40;2.35;;;2.15;;
85725;SDS011;76169;47.278;10.984;2024-02-28T03:24:06;2.53;;;2.30;;
85725;SDS011;76169;47.278;10.984;2024-02-28T03:26:32;2.53;;;2.33;;
85725;SDS011;76169;47.278;10.984;2024-02-28T03:28:59;2.80;;;2.40;;
85725;SDS011;76169;47.278;10.984;2024-02-28T03:31:25;2.38;;;2.17;;
85725;SDS011;76169;47.278;10.984;2024-02-28T03:33:51;2.30;;;2.15;;
85725;SDS011;76169;47.278;10.984;2024-02-28T03:36:17;2.67;;;2.47;;
85725;SDS011;76169;47.278;10.984;2024-02-28T03:38:43;2.72;;;2.40;;
85725;SDS011;76169;47.278;10.984;2024-02-28T03:41:09;2.42;;;2.22;;
85725;SDS011;76169;47.278;10.984;2024-02-28T03:43:35;3.22;;;2.42;;
85725;SDS011;76169;47.278;10.984;2024-02-28T03:46:01;2.88;;;2.67;;
85725;SDS011;76169;47.278;10.984;2024-02-28T03:48:27;2.50;;;2.30;;
85725;SDS011;76169;47.278;10.984;2024-02-28T03:50:53;3.05;;;2.78;;
85725;SDS011;76169;47.278;10.984;2024-02-28T03:53:19;2.67;;;2.47;;
85725;SDS011;76169;47.278;10.984;2024-02-28T03:55:45;2.58;;;2.38;;
85725;SDS011;76169;47.278;10.984;2024-02-28T03:58:12;3.17;;;2.67;;
85725;SDS011;76169;47.278;10.984;2024-02-28T04:00:38;3.17;;;2.78;;
85725;SDS011;76169;47.278;10.984;2024-02-28T04:03:04;2.88;;;2.58;;
85725;SDS011;76169;47.278;10.984;2024-02-28T04:05:31;2.72;;;2.53;;
85725;SDS011;76169;47.278;10.984;2024-02-28T04:07:57;2.70;;;2.50;;
85725;SDS011;76169;47.278;10.984;2024-02-28T04:10:23;2.60;;;2.40;;
85725;SDS011;76169;47.278;10.984;2024-02-28T04:12:49;2.40;;;2.20;;
85725;SDS011;76169;47.278;10.984;2024-02-28T04:15:15;2.33;;;2.10;;
85725;SDS011;76169;47.278;10.984;2024-02-28T04:17:41;2.72;;;2.53;;
85725;SDS011;76169;47.278;10.984;2024-02-28T04:20:08;3.15;;;2.85;;
85725;SDS011;76169;47.278;10.984;2024-02-28T04:22:34;3.00;;;2.67;;
85725;SDS011;76169;47.278;10.984;2024-02-28T04:25:00;2.70;;;2.50;;
85725;SDS011;76169;47.278;10.984;2024-02-28T04:27:26;2.63;;;2.42;;
85725;SDS011;76169;47.278;10.984;2024-02-28T04:29:52;2.70;;;2.47;;
85725;SDS011;76169;47.278;10.984;2024-02-28T04:32:18;3.42;;;2.63;;
85725;SDS011;76169;47.278;10.984;2024-02-28T04:34:44;2.53;;;2.33;;
85725;SDS011;76169;47.278;10.984;2024-02-28T04:37:10;3.03;;;2.72;;
85725;SDS011;76169;47.278;10.984;2024-02-28T04:39:36;2.60;;;2.40;;
85725;SDS011;76169;47.278;10.984;2024-02-28T04:42:03;3.28;;;2.60;;
85725;SDS011;76169;47.278;10.984;2024-02-28T04:44:29;2.78;;;2.58;;
85725;SDS011;76169;47.278;10.984;2024-02-28T04:46:55;3.15;;;2.60;;
85725;SDS011;76169;47.278;10.984;2024-02-28T04:49:21;2.75;;;2.40;;
85725;SDS011;76169;47.278;10.984;2024-02-28T04:51:48;2.65;;;2.40;;
85725;SDS011;76169;47.278;10.984;2024-02-28T04:54:14;3.90;;;2.80;;
85725;SDS011;76169;47.278;10.984;2024-02-28T04:56:40;2.80;;;2.60;;
85725;SDS011;76169;47.278;10.984;2024-02-28T04:59:07;2.90;;;2.70;;
85725;SDS011;76169;47.278;10.984;2024-02-28T05:01:33;2.88;;;2.58;;
85725;SDS011;76169;47.278;10.984;2024-02-28T05:04:00;3.20;;;2.90;;
85725;SDS011;76169;47.278;10.984;2024-02-28T05:06:27;3.13;;;2.88;;
85725;SDS011;76169;47.278;10.984;2024-02-28T05:08:53;3.25;;;2.88;;
85725;SDS011;76169;47.278;10.984;2024-02-28T05:11:19;3.53;;;3.00;;
85725;SDS011;76169;47.278;10.984;2024-02-28T05:13:45;3.10;;;2.75;;
85725;SDS011;76169;47.278;10.984;2024-02-28T05:16:12;2.92;;;2.63;;
85725;SDS011;76169;47.278;10.984;2024-02-28T05:18:38;2.83;;;2.63;;
85725;SDS011;76169;47.278;10.984;2024-02-28T05:21:04;3.30;;;3.00;;
85725;SDS011;76169;47.278;10.984;2024-02-28T05:23:30;3.35;;;3.05;;
85725;SDS011;76169;47.278;10.984;2024-02-28T05:25:56;3.53;;;2.92;;
85725;SDS011;76169;47.278;10.984;2024-02-28T05:28:23;3.38;;;3.08;;
85725;SDS011;76169;47.278;10.984;2024-02-28T05:30:49;3.17;;;2.88;;
85725;SDS011;76169;47.278;10.984;2024-02-28T05:33:15;3.25;;;2.92;;
85725;SDS011;76169;47.278;10.984;2024-02-28T05:35:42;3.20;;;2.90;;
85725;SDS011;76169;47.278;10.984;2024-02-28T05:38:08;2.90;;;2.60;;
85725;SDS011;76169;47.278;10.984;2024-02-28T05:40:34;3.03;;;2.80;;
85725;SDS011;76169;47.278;10.984;2024-02-28T05:43:00;3.50;;;3.08;;
85725;SDS011;76169;47.278;10.984;2024-02-28T05:45:27;3.15;;;2.85;;
85725;SDS011;76169;47.278;10.984;2024-02-28T05:47:53;2.97;;;2.70;;
85725;SDS011;76169;47.278;10.984;2024-02-28T05:50:19;3.28;;;2.97;;
85725;SDS011;76169;47.278;10.984;2024-02-28T05:52:45;3.35;;;3.00;;
85725;SDS011;76169;47.278;10.984;2024-02-28T05:55:11;2.83;;;2.63;;
85725;SDS011;76169;47.278;10.984;2024-02-28T05:57:37;2.80;;;2.60;;
85725;SDS011;76169;47.278;10.984;2024-02-28T06:00:03;2.95;;;2.55;;
85725;SDS011;76169;47.278;10.984;2024-02-28T06:02:35;3.20;;;2.90;;
85725;SDS011;76169;47.278;10.984;2024-02-28T06:05:02;2.92;;;2.70;;
85725;SDS011;76169;47.278;10.984;2024-02-28T06:07:28;3.20;;;2.90;;
85725;SDS011;76169;47.278;10.984;2024-02-28T06:09:54;2.70;;;2.50;;
85725;SDS011;76169;47.278;10.984;2024-02-28T06:12:20;3.30;;;3.00;;
85725;SDS011;76169;47.278;10.984;2024-02-28T06:14:46;3.25;;;2.95;;
85725;SDS011;76169;47.278;10.984;2024-02-28T06:17:12;3.33;;;3.03;;
85725;SDS011;76169;47.278;10.984;2024-02-28T06:19:38;3.38;;;3.08;;
85725;SDS011;76169;47.278;10.984;2024-02-28T06:22:04;3.20;;;2.72;;
85725;SDS011;76169;47.278;10.984;2024-02-28T06:24:33;3.05;;;2.80;;
85725;SDS011;76169;47.278;10.984;2024-02-28T06:26:59;2.80;;;2.60;;
85725;SDS011;76169;47.278;10.984;2024-02-28T06:29:25;3.80;;;2.80;;
85725;SDS011;76169;47.278;10.984;2024-02-28T06:31:51;3.20;;;2.90;;
85725;SDS011;76169;47.278;10.984;2024-02-28T06:34:18;3.38;;;3.08;;
85725;SDS011;76169;47.278;10.984;2024-02-28T06:36:44;3.45;;;3.15;;
85725;SDS011;76169;47.278;10.984;2024-02-28T06:39:10;3.25;;;2.95;;
85725;SDS011;76169;47.278;10.984;2024-02-28T06:41:36;3.70;;;3.00;;
85725;SDS011;76169;47.278;10.984;2024-02-28T06:44:02;3.38;;;2.88;;
85725;SDS011;76169;47.278;10.984;2024-02-28T06:46:28;3.33;;;3.03;;
85725;SDS011;76169;47.278;10.984;2024-02-28T06:48:54;3.22;;;2.92;;
85725;SDS011;76169;47.278;10.984;2024-02-28T06:51:20;2.90;;;2.70;;
85725;SDS011;76169;47.278;10.984;2024-02-28T06:53:46;3.47;;;3.17;;
85725;SDS011;76169;47.278;10.984;2024-02-28T06:56:13;3.30;;;3.00;;
85725;SDS011;76169;47.278;10.984;2024-02-28T06:58:39;2.80;;;2.60;;
85725;SDS011;76169;47.278;10.984;2024-02-28T07:01:05;3.30;;;3.00;;
85725;SDS011;76169;47.278;10.984;2024-02-28T07:03:31;3.17;;;2.88;;
85725;SDS011;76169;47.278;10.984;2024-02-28T07:05:57;4.85;;;3.00;;
85725;SDS011;76169;47.278;10.984;2024-02-28T07:08:23;3.70;;;3.10;;
85725;SDS011;76169;47.278;10.984;2024-02-28T07:10:49;3.45;;;3.15;;
85725;SDS011;76169;47.278;10.984;2024-02-28T07:13:19;5.43;;;3.60;;
85725;SDS011;76169;47.278;10.984;2024-02-28T07:15:46;5.95;;;2.72;;
85725;SDS011;76169;47.278;10.984;2024-02-28T07:18:12;6.63;;;3.15;;
85725;SDS011;76169;47.278;10.984;2024-02-28T07:20:38;6.63;;;3.63;;
85725;SDS011;76169;47.278;10.984;2024-02-28T07:23:04;5.43;;;3.10;;
85725;SDS011;76169;47.278;10.984;2024-02-28T07:25:30;4.57;;;3.40;;
85725;SDS011;76169;47.278;10.984;2024-02-28T07:27:57;5.45;;;3.50;;
85725;SDS011;76169;47.278;10.984;2024-02-28T07:30:27;9.43;;;3.70;;
85725;SDS011;76169;47.278;10.984;2024-02-28T07:32:53;7.57;;;3.95;;
85725;SDS011;76169;47.278;10.984;2024-02-28T07:35:20;16.08;;;3.50;;
85725;SDS011;76169;47.278;10.984;2024-02-28T07:37:46;4.82;;;3.33;;
85725;SDS011;76169;47.278;10.984;2024-02-28T07:40:12;4.90;;;3.42;;
85725;SDS011;76169;47.278;10.984;2024-02-28T07:42:38;6.50;;;3.83;;
85725;SDS011;76169;47.278;10.984;2024-02-28T07:45:05;11.52;;;3.70;;
85725;SDS011;76169;47.278;10.984;2024-02-28T07:47:33;10.57;;;3.72;;
85725;SDS011;76169;47.278;10.984;2024-02-28T07:49:59;7.95;;;3.30;;
85725;SDS011;76169;47.278;10.984;2024-02-28T07:52:25;8.05;;;4.43;;
85725;SDS011;76169;47.278;10.984;2024-02-28T07:54:51;6.38;;;3.80;;
85725;SDS011;76169;47.278;10.984;2024-02-28T07:57:17;8.80;;;3.53;;
85725;SDS011;76169;47.278;10.984;2024-02-28T07:59:43;6.53;;;3.50;;
85725;SDS011;76169;47.278;10.984;2024-02-28T08:02:12;9.77;;;3.65;;
85725;SDS011;76169;47.278;10.984;2024-02-28T08:04:39;10.32;;;3.50;;
85725;SDS011;76169;47.278;10.984;2024-02-28T08:07:05;11.68;;;3.80;;
85725;SDS011;76169;47.278;10.984;2024-02-28T08:09:31;7.55;;;3.28;;
85725;SDS011;76169;47.278;10.984;2024-02-28T08:11:57;13.93;;;3.67;;
85725;SDS011;76169;47.278;10.984;2024-02-28T08:14:24;10.80;;;4.28;;
85725;SDS011;76169;47.278;10.984;2024-02-28T08:16:50;9.43;;;4.15;;
85725;SDS011;76169;47.278;10.984;2024-02-28T08:19:16;5.60;;;3.58;;
85725;SDS011;76169;47.278;10.984;2024-02-28T08:21:42;10.25;;;3.65;;
85725;SDS011;76169;47.278;10.984;2024-02-28T08:24:09;7.55;;;4.07;;
85725;SDS011;76169;47.278;10.984;2024-02-28T08:26:35;12.45;;;3.83;;
85725;SDS011;76169;47.278;10.984;2024-02-28T08:29:01;10.68;;;3.90;;
85725;SDS011;76169;47.278;10.984;2024-02-28T08:31:27;9.45;;;3.53;;
85725;SDS011;76169;47.278;10.984;2024-02-28T08:33:54;8.43;;;4.03;;
85725;SDS011;76169;47.278;10.984;2024-02-28T08:36:20;11.98;;;4.07;;
85725;SDS011;76169;47.278;10.984;2024-02-28T08:38:46;13.05;;;4.28;;
85725;SDS011;76169;47.278;10.984;2024-02-28T08:41:12;9.10;;;3.63;;
85725;SDS011;76169;47.278;10.984;2024-02-28T08:43:39;13.77;;;4.68;;
85725;SDS011;76169;47.278;10.984;2024-02-28T08:46:05;10.48;;;4.20;;
85725;SDS011;76169;47.278;10.984;2024-02-28T08:48:34;12.07;;;4.10;;
85725;SDS011;76169;47.278;10.984;2024-02-28T08:51:02;9.10;;;4.97;;
85725;SDS011;76169;47.278;10.984;2024-02-28T08:53:28;15.07;;;4.63;;
85725;SDS011;76169;47.278;10.984;2024-02-28T08:55:54;8.88;;;3.95;;
85725;SDS011;76169;47.278;10.984;2024-02-28T08:58:20;11.73;;;5.22;;
85725;SDS011;76169;47.278;10.984;2024-02-28T09:00:46;9.75;;;4.65;;
85725;SDS011;76169;47.278;10.984;2024-02-28T09:03:12;6.78;;;3.97;;
85725;SDS011;76169;47.278;10.984;2024-02-28T09:05:38;9.32;;;4.45;;
85725;SDS011;76169;47.278;10.984;2024-02-28T09:08:05;8.07;;;4.13;;
85725;SDS011;76169;47.278;10.984;2024-02-28T09:10:31;10.15;;;4.88;;
85725;SDS011;76169;47.278;10.984;2024-02-28T09:12:59;9.20;;;4.40;;
85725;SDS011;76169;47.278;10.984;2024-02-28T09:15:25;12.38;;;5.03;;
85725;SDS011;76169;47.278;10.984;2024-02-28T09:17:51;7.68;;;4.25;;
85725;SDS011;76169;47.278;10.984;2024-02-28T09:20:17;8.20;;;4.50;;
85725;SDS011;76169;47.278;10.984;2024-02-28T09:22:43;7.95;;;4.32;;
85725;SDS011;76169;47.278;10.984;2024-02-28T09:25:09;11.38;;;4.82;;
85725;SDS011;76169;47.278;10.984;2024-02-28T09:27:36;8.13;;;4.35;;
85725;SDS011;76169;47.278;10.984;2024-02-28T09:30:02;7.72;;;4.25;;
85725;SDS011;76169;47.278;10.984;2024-02-28T09:32:28;7.75;;;4.05;;
85725;SDS011;76169;47.278;10.984;2024-02-28T09:34:54;7.32;;;4.40;;
85725;SDS011;76169;47.278;10.984;2024-02-28T09:37:21;7.03;;;4.22;;
85725;SDS011;76169;47.278;10.984;2024-02-28T09:39:47;8.68;;;4.93;;
85725;SDS011;76169;47.278;10.984;2024-02-28T09:42:13;5.57;;;4.65;;
85725;SDS011;76169;47.278;10.984;2024-02-28T09:44:40;7.57;;;4.47;;
85725;SDS011;76169;47.278;10.984;2024-02-28T09:47:08;7.22;;;3.83;;
85725;SDS011;76169;47.278;10.984;2024-02-28T09:49:36;6.43;;;4.30;;
85725;SDS011;76169;47.278;10.984;2024-02-28T09:52:03;9.75;;;4.38;;
85725;SDS011;76169;47.278;10.984;2024-02-28T09:54:29;6.43;;;4.03;;
85725;SDS011;76169;47.278;10.984;2024-02-28T09:56:55;6.25;;;4.00;;
85725;SDS011;76169;47.278;10.984;2024-02-28T09:59:22;8.48;;;4.35;;
85725;SDS011;76169;47.278;10.984;2024-02-28T10:01:53;6.97;;;4.28;;
85725;SDS011;76169;47.278;10.984;2024-02-28T10:04:20;7.45;;;3.95;;
85725;SDS011;76169;47.278;10.984;2024-02-28T10:06:46;7.07;;;3.83;;
85725;SDS011;76169;47.278;10.984;2024-02-28T10:09:15;9.02;;;4.38;;
85725;SDS011;76169;47.278;10.984;2024-02-28T10:11:41;5.63;;;4.00;;
85725;SDS011;76169;47.278;10.984;2024-02-28T10:14:17;4.32;;;3.67;;
85725;SDS011;76169;47.278;10.984;2024-02-28T10:16:46;6.22;;;4.10;;
85725;SDS011;76169;47.278;10.984;2024-02-28T10:19:12;4.20;;;3.80;;
85725;SDS011;76169;47.278;10.984;2024-02-28T10:21:38;5.35;;;4.05;;
85725;SDS011;76169;47.278;10.984;2024-02-28T10:24:04;6.55;;;4.00;;
85725;SDS011;76169;47.278;10.984;2024-02-28T10:26:30;5.88;;;4.20;;
85725;SDS011;76169;47.278;10.984;2024-02-28T10:29:01;10.38;;;3.85;;
85725;SDS011;76169;47.278;10.984;2024-02-28T10:31:31;5.40;;;4.00;;
85725;SDS011;76169;47.278;10.984;2024-02-28T10:33:57;8.05;;;4.15;;
85725;SDS011;76169;47.278;10.984;2024-02-28T10:36:24;8.57;;;4.38;;
85725;SDS011;76169;47.278;10.984;2024-02-28T10:38:50;6.50;;;4.15;;
85725;SDS011;76169;47.278;10.984;2024-02-28T10:41:16;7.40;;;4.28;;
85725;SDS011;76169;47.278;10.984;2024-02-28T10:43:43;5.22;;;4.38;;
85725;SDS011;76169;47.278;10.984;2024-02-28T10:46:10;4.18;;;3.80;;
85725;SDS011;76169;47.278;10.984;2024-02-28T10:48:36;4.20;;;3.70;;
85725;SDS011;76169;47.278;10.984;2024-02-28T10:51:02;6.95;;;4.30;;
85725;SDS011;76169;47.278;10.984;2024-02-28T10:53:32;10.00;;;4.18;;
85725;SDS011;76169;47.278;10.984;2024-02-28T10:56:03;5.50;;;4.05;;
85725;SDS011;76169;47.278;10.984;2024-02-28T10:58:32;5.57;;;3.80;;
85725;SDS011;76169;47.278;10.984;2024-02-28T11:00:59;4.63;;;3.95;;
85725;SDS011;76169;47.278;10.984;2024-02-28T11:03:25;4.55;;;3.70;;
85725;SDS011;76169;47.278;10.984;2024-02-28T11:05:52;5.40;;;3.88;;
85725;SDS011;76169;47.278;10.984;2024-02-28T11:08:21;9.70;;;4.20;;
85725;SDS011;76169;47.278;10.984;2024-02-28T11:10:54;6.70;;;3.95;;
85725;SDS011;76169;47.278;10.984;2024-02-28T11:13:21;7.90;;;3.92;;
85725;SDS011;76169;47.278;10.984;2024-02-28T11:15:47;4.20;;;3.72;;
85725;SDS011;76169;47.278;10.984;2024-02-28T11:18:13;4.28;;;3.88;;
85725;SDS011;76169;47.278;10.984;2024-02-28T11:20:43;5.45;;;4.47;;
85725;SDS011;76169;47.278;10.984;2024-02-28T11:23:11;4.75;;;3.75;;
85725;SDS011;76169;47.278;10.984;2024-02-28T11:25:39;6.55;;;3.83;;
85725;SDS011;76169;47.278;10.984;2024-02-28T11:28:05;6.00;;;4.20;;
85725;SDS011;76169;47.278;10.984;2024-02-28T11:30:32;6.15;;;4.18;;
85725;SDS011;76169;47.278;10.984;2024-02-28T11:32:58;12.00;;;4.10;;
85725;SDS011;76169;47.278;10.984;2024-02-28T11:35:27;7.40;;;4.20;;
85725;SDS011;76169;47.278;10.984;2024-02-28T11:37:54;6.72;;;4.40;;
85725;SDS011;76169;47.278;10.984;2024-02-28T11:40:24;8.43;;;4.50;;
85725;SDS011;76169;47.278;10.984;2024-02-28T11:42:53;10.65;;;4.32;;
85725;SDS011;76169;47.278;10.984;2024-02-28T11:45:20;13.38;;;4.68;;
85725;SDS011;76169;47.278;10.984;2024-02-28T11:47:46;8.50;;;4.30;;
85725;SDS011;76169;47.278;10.984;2024-02-28T11:50:12;10.32;;;4.30;;
85725;SDS011;76169;47.278;10.984;2024-02-28T11:52:43;10.05;;;4.15;;
85725;SDS011;76169;47.278;10.984;2024-02-28T11:55:09;13.32;;;4.68;;
85725;SDS011;76169;47.278;10.984;2024-02-28T11:57:36;7.70;;;4.18;;
85725;SDS011;76169;47.278;10.984;2024-02-28T12:00:03;16.65;;;4.28;;
85725;SDS011;76169;47.278;10.984;2024-02-28T12:02:29;20.45;;;4.70;;
85725;SDS011;76169;47.278;10.984;2024-02-28T12:04:59;23.67;;;4.68;;
85725;SDS011;76169;47.278;10.984;2024-02-28T12:07:25;12.43;;;4.75;;
85725;SDS011;76169;47.278;10.984;2024-02-28T12:09:53;20.90;;;5.85;;
85725;SDS011;76169;47.278;10.984;2024-02-28T12:12:19;15.40;;;5.85;;
85725;SDS011;76169;47.278;10.984;2024-02-28T12:14:45;20.73;;;6.57;;
85725;SDS011;76169;47.278;10.984;2024-02-28T12:17:13;17.05;;;6.65;;
85725;SDS011;76169;47.278;10.984;2024-02-28T12:19:43;19.85;;;6.82;;
85725;SDS011;76169;47.278;10.984;2024-02-28T12:22:09;19.73;;;6.25;;
85725;SDS011;76169;47.278;10.984;2024-02-28T12:24:36;18.73;;;6.40;;
85725;SDS011;76169;47.278;10.984;2024-02-28T12:27:02;18.45;;;6.78;;
85725;SDS011;76169;47.278;10.984;2024-02-28T12:29:28;15.02;;;6.00;;
85725;SDS011;76169;47.278;10.984;2024-02-28T12:31:54;15.48;;;6.63;;
85725;SDS011;76169;47.278;10.984;2024-02-28T12:34:21;14.23;;;6.85;;
85725;SDS011;76169;47.278;10.984;2024-02-28T12:36:47;17.50;;;6.80;;
85725;SDS011;76169;47.278;10.984;2024-02-28T12:39:13;18.33;;;7.50;;
85725;SDS011;76169;47.278;10.984;2024-02-28T12:41:39;15.40;;;7.22;;
85725;SDS011;76169;47.278;10.984;2024-02-28T12:44:05;16.67;;;7.13;;
85725;SDS011;76169;47.278;10.984;2024-02-28T12:46:32;12.40;;;6.63;;
85725;SDS011;76169;47.278;10.984;2024-02-28T12:48:59;18.10;;;7.03;;
85725;SDS011;76169;47.278;10.984;2024-02-28T12:51:41;15.05;;;6.90;;
85725;SDS011;76169;47.278;10.984;2024-02-28T12:54:08;17.57;;;7.33;;
85725;SDS011;76169;47.278;10.984;2024-02-28T12:56:37;10.68;;;6.20;;
85725;SDS011;76169;47.278;10.984;2024-02-28T12:59:04;13.88;;;6.93;;
85725;SDS011;76169;47.278;10.984;2024-02-28T13:01:32;12.93;;;6.43;;
85725;SDS011;76169;47.278;10.984;2024-02-28T13:03:58;12.68;;;6.15;;
85725;SDS011;76169;47.278;10.984;2024-02-28T13:06:24;16.52;;;6.35;;
85725;SDS011;76169;47.278;10.984;2024-02-28T13:08:50;10.40;;;6.13;;
85725;SDS011;76169;47.278;10.984;2024-02-28T13:11:20;11.10;;;6.40;;
85725;SDS011;76169;47.278;10.984;2024-02-28T13:13:47;14.07;;;6.05;;
85725;SDS011;76169;47.278;10.984;2024-02-28T13:16:14;12.55;;;5.82;;
85725;SDS011;76169;47.278;10.984;2024-02-28T13:18:40;9.35;;;5.43;;
85725;SDS011;76169;47.278;10.984;2024-02-28T13:21:06;11.20;;;5.18;;
85725;SDS011;76169;47.278;10.984;2024-02-28T13:23:32;10.88;;;5.57;;
85725;SDS011;76169;47.278;10.984;2024-02-28T13:25:59;12.02;;;5.70;;
85725;SDS011;76169;47.278;10.984;2024-02-28T13:28:25;9.05;;;5.22;;
85725;SDS011;76169;47.278;10.984;2024-02-28T13:30:57;8.90;;;5.55;;
85725;SDS011;76169;47.278;10.984;2024-02-28T13:33:23;9.45;;;4.57;;
85725;SDS011;76169;47.278;10.984;2024-02-28T13:35:49;10.60;;;5.22;;
85725;SDS011;76169;47.278;10.984;2024-02-28T13:38:16;9.55;;;4.82;;
85725;SDS011;76169;47.278;10.984;2024-02-28T13:40:42;11.68;;;4.82;;
85725;SDS011;76169;47.278;10.984;2024-02-28T13:43:10;8.32;;;4.97;;
85725;SDS011;76169;47.278;10.984;2024-02-28T13:45:37;16.23;;;5.40;;
85725;SDS011;76169;47.278;10.984;2024-02-28T13:48:14;9.52;;;5.10;;
85725;SDS011;76169;47.278;10.984;2024-02-28T13:50:41;9.50;;;4.75;;
85725;SDS011;76169;47.278;10.984;2024-02-28T13:53:07;9.60;;;4.68;;
85725;SDS011;76169;47.278;10.984;2024-02-28T13:55:33;9.10;;;4.50;;
85725;SDS011;76169;47.278;10.984;2024-02-28T13:57:59;8.70;;;4.93;;
85725;SDS011;76169;47.278;10.984;2024-02-28T14:00:25;6.40;;;4.38;;
85725;SDS011;76169;47.278;10.984;2024-02-28T14:02:51;10.30;;;4.28;;
85725;SDS011;76169;47.278;10.984;2024-02-28T14:05:17;11.98;;;5.18;;
85725;SDS011;76169;47.278;10.984;2024-02-28T14:07:43;10.48;;;4.97;;
85725;SDS011;76169;47.278;10.984;2024-02-28T14:10:09;16.90;;;4.95;;
85725;SDS011;76169;47.278;10.984;2024-02-28T14:12:36;5.10;;;3.72;;
85725;SDS011;76169;47.278;10.984;2024-02-28T14:15:03;6.78;;;4.72;;
85725;SDS011;76169;47.278;10.984;2024-02-28T14:17:29;9.88;;;5.00;;
85725;SDS011;76169;47.278;10.984;2024-02-28T14:19:55;6.90;;;3.95;;
85725;SDS011;76169;47.278;10.984;2024-02-28T14:22:21;6.65;;;4.40;;
85725;SDS011;76169;47.278;10.984;2024-02-28T14:24:47;7.85;;;4.47;;
85725;SDS011;76169;47.278;10.984;2024-02-28T14:27:14;7.55;;;4.40;;